createdAt,value
2022-12-29T00:01:42.627Z,10.12
2022-12-29T00:04:15.174Z,10.18
2022-12-29T00:06:43.261Z,10.22
2022-12-29T00:09:12.407Z,10.22
2022-12-29T00:11:40.021Z,10.23
2022-12-29T00:14:26.362Z,10.28
2022-12-29T00:16:53.129Z,10.30
2022-12-29T00:19:38.142Z,10.31
2022-12-29T00:22:23.299Z,10.35
2022-12-29T00:24:55.855Z,10.36
2022-12-29T00:27:41.195Z,10.35
2022-12-29T00:30:31.439Z,10.37
2022-12-29T00:33:16.429Z,10.38
2022-12-29T00:35:54.630Z,10.38
2022-12-29T00:38:40.809Z,10.40
2022-12-29T00:41:25.915Z,10.41
2022-12-29T00:44:07.733Z,10.40
2022-12-29T00:46:38.670Z,10.38
2022-12-29T00:49:25.656Z,10.41
2022-12-29T00:51:52.940Z,10.42
2022-12-29T00:54:19.914Z,10.44
2022-12-29T00:56:51.200Z,10.44
2022-12-29T00:59:18.889Z,10.44
2022-12-29T01:01:46.017Z,10.44
2022-12-29T01:04:12.930Z,10.47
2022-12-29T01:06:41.029Z,10.45
2022-12-29T01:09:27.367Z,10.42
2022-12-29T01:11:54.299Z,10.42
2022-12-29T01:14:21.517Z,10.41
2022-12-29T01:16:48.253Z,10.39
2022-12-29T01:19:16.146Z,10.37
2022-12-29T01:21:45.289Z,10.33
2022-12-29T01:24:11.961Z,10.29
2022-12-29T01:26:38.564Z,10.24
2022-12-29T01:29:05.806Z,10.21
2022-12-29T01:31:32.410Z,10.16
2022-12-29T01:33:59.181Z,10.15
2022-12-29T01:36:26.165Z,10.09
2022-12-29T01:38:52.948Z,10.07
2022-12-29T01:41:19.574Z,10.05
2022-12-29T01:43:48.803Z,10.04
2022-12-29T01:46:20.442Z,10.01
2022-12-29T01:48:50.076Z,10.00
2022-12-29T01:51:17.885Z,10.01
2022-12-29T01:53:46.253Z,10.01
2022-12-29T01:56:17.265Z,10.00
2022-12-29T01:58:47.500Z,10.01
2022-12-29T02:01:15.272Z,10.02
2022-12-29T02:03:42.227Z,9.99
2022-12-29T02:06:14.048Z,9.99
2022-12-29T02:08:41.734Z,9.98
2022-12-29T02:11:08.635Z,9.97
2022-12-29T02:13:35.191Z,9.98
2022-12-29T02:16:13.972Z,9.97
2022-12-29T02:18:56.504Z,10.00
2022-12-29T02:22:00.621Z,9.99
2022-12-29T02:24:40.421Z,9.97
2022-12-29T02:27:12.867Z,9.98
2022-12-29T02:29:51.464Z,9.97
2022-12-29T02:32:36.256Z,9.96
2022-12-29T02:35:05.711Z,9.97
2022-12-29T02:38:05.540Z,9.96
2022-12-29T02:41:03.981Z,9.93
2022-12-29T02:43:48.857Z,9.89
2022-12-29T02:46:28.975Z,9.86
2022-12-29T02:49:06.234Z,9.86
2022-12-29T02:52:01.936Z,9.87
2022-12-29T02:54:44.157Z,9.88
2022-12-29T02:57:29.878Z,9.89
2022-12-29T03:00:02.033Z,9.89
2022-12-29T03:03:02.472Z,9.88
2022-12-29T03:05:58.687Z,9.88
2022-12-29T03:08:49.479Z,9.86
2022-12-29T03:11:35.197Z,9.85
2022-12-29T03:14:40.724Z,9.85
2022-12-29T03:17:13.611Z,9.79
2022-12-29T03:19:47.442Z,9.74
2022-12-29T03:22:32.300Z,9.71
2022-12-29T03:25:11.338Z,9.75
2022-12-29T03:27:46.889Z,9.76
2022-12-29T03:30:14.120Z,9.75
2022-12-29T03:32:47.169Z,9.72
2022-12-29T03:35:17.363Z,9.64
2022-12-29T03:37:50.596Z,9.61
2022-12-29T03:40:17.816Z,9.54
2022-12-29T03:42:45.219Z,9.49
2022-12-29T03:45:11.975Z,9.48
2022-12-29T03:47:38.591Z,9.48
2022-12-29T03:50:05.472Z,9.46
2022-12-29T03:52:32.006Z,9.45
2022-12-29T03:54:58.524Z,9.44
2022-12-29T03:57:24.946Z,9.38
2022-12-29T03:59:51.435Z,9.39
2022-12-29T04:02:18.465Z,9.33
2022-12-29T04:04:45.222Z,9.29
2022-12-29T04:07:11.695Z,9.23
2022-12-29T04:09:38.245Z,9.21
2022-12-29T04:12:04.976Z,9.18
2022-12-29T04:14:31.537Z,9.20
2022-12-29T04:16:58.074Z,9.23
2022-12-29T04:19:24.686Z,9.26
2022-12-29T04:21:51.223Z,9.29
2022-12-29T04:24:17.949Z,9.31
2022-12-29T04:26:45.365Z,9.34
2022-12-29T04:29:11.877Z,9.33
2022-12-29T04:31:38.436Z,9.33
2022-12-29T04:34:04.925Z,9.33
2022-12-29T04:36:31.396Z,9.34
2022-12-29T04:38:58.029Z,9.33
2022-12-29T04:41:24.892Z,9.31
2022-12-29T04:43:51.536Z,9.36
2022-12-29T04:46:18.445Z,9.37
2022-12-29T04:48:45.032Z,9.36
2022-12-29T04:51:11.544Z,9.37
2022-12-29T04:53:38.069Z,9.39
2022-12-29T04:56:04.783Z,9.40
2022-12-29T04:58:31.240Z,9.38
2022-12-29T05:00:57.731Z,9.36
2022-12-29T05:03:24.330Z,9.37
2022-12-29T05:05:54.744Z,9.40
2022-12-29T05:08:27.641Z,9.41
2022-12-29T05:10:55.059Z,9.41
2022-12-29T05:13:21.522Z,9.40
2022-12-29T05:15:54.936Z,9.39
2022-12-29T05:18:21.473Z,9.36
2022-12-29T05:20:48.356Z,9.34
2022-12-29T05:23:14.946Z,9.37
2022-12-29T05:25:41.390Z,9.31
2022-12-29T05:28:07.880Z,9.32
2022-12-29T05:30:34.426Z,9.33
2022-12-29T05:33:00.927Z,9.34
2022-12-29T05:35:27.568Z,9.33
2022-12-29T05:37:54.126Z,9.36
2022-12-29T05:40:20.576Z,9.34
2022-12-29T05:42:47.035Z,9.35
2022-12-29T05:45:13.511Z,9.33
2022-12-29T05:47:40.925Z,9.33
2022-12-29T05:50:07.862Z,9.33
2022-12-29T05:52:34.348Z,9.33
2022-12-29T05:55:01.023Z,9.35
2022-12-29T05:57:27.480Z,9.35
2022-12-29T05:59:53.999Z,9.36
2022-12-29T06:02:20.554Z,9.32
2022-12-29T06:04:47.107Z,9.32
2022-12-29T06:07:13.626Z,9.31
2022-12-29T06:09:40.409Z,9.32
2022-12-29T06:12:07.209Z,9.34
2022-12-29T06:14:33.693Z,9.30
2022-12-29T06:17:00.897Z,9.26
2022-12-29T06:19:27.427Z,9.22
2022-12-29T06:21:54.629Z,9.15
2022-12-29T06:24:21.573Z,9.12
2022-12-29T06:26:48.074Z,9.09
2022-12-29T06:29:17.835Z,9.08
2022-12-29T06:31:46.594Z,9.05
2022-12-29T06:34:14.026Z,9.03
2022-12-29T06:36:40.552Z,8.98
2022-12-29T06:39:07.309Z,8.94
2022-12-29T06:41:33.809Z,8.93
2022-12-29T06:44:00.290Z,8.88
2022-12-29T06:46:26.873Z,8.86
2022-12-29T06:48:53.362Z,8.83
2022-12-29T06:51:19.878Z,8.80
2022-12-29T06:53:46.331Z,8.80
2022-12-29T06:56:12.932Z,8.80
2022-12-29T06:58:39.403Z,8.79
2022-12-29T07:01:05.959Z,8.81
2022-12-29T07:03:32.571Z,8.87
2022-12-29T07:05:59.148Z,8.90
2022-12-29T07:08:25.689Z,8.91
2022-12-29T07:10:52.202Z,8.87
2022-12-29T07:13:18.732Z,8.82
2022-12-29T07:15:45.239Z,8.71
2022-12-29T07:18:11.774Z,8.60
2022-12-29T07:20:38.257Z,8.51
2022-12-29T07:23:04.768Z,8.40
2022-12-29T07:25:31.270Z,8.31
2022-12-29T07:27:57.875Z,8.21
2022-12-29T07:30:24.325Z,8.11
2022-12-29T07:32:50.850Z,8.03
2022-12-29T07:35:17.590Z,7.98
2022-12-29T07:37:44.207Z,7.94
2022-12-29T07:40:11.856Z,7.95
2022-12-29T07:42:38.432Z,7.98
2022-12-29T07:45:05.643Z,8.04
2022-12-29T07:47:32.196Z,8.06
2022-12-29T07:49:58.661Z,8.08
2022-12-29T07:52:25.108Z,8.11
2022-12-29T07:54:51.574Z,8.15
2022-12-29T07:57:18.377Z,8.19
2022-12-29T07:59:44.889Z,8.23
2022-12-29T08:02:12.717Z,8.28
2022-12-29T08:04:39.306Z,8.28
2022-12-29T08:07:05.844Z,8.29
2022-12-29T08:09:32.335Z,8.32
2022-12-29T08:11:58.793Z,8.36
2022-12-29T08:14:25.281Z,8.40
2022-12-29T08:16:51.796Z,8.46
2022-12-29T08:19:18.476Z,8.49
2022-12-29T08:21:45.028Z,8.53
2022-12-29T08:24:11.545Z,8.55
2022-12-29T08:26:38.069Z,8.60
2022-12-29T08:29:04.682Z,8.61
2022-12-29T08:31:31.268Z,8.65
2022-12-29T08:33:57.829Z,8.71
2022-12-29T08:36:24.456Z,8.78
2022-12-29T08:38:50.906Z,8.79
2022-12-29T08:41:17.399Z,8.81
2022-12-29T08:43:47.656Z,8.83
2022-12-29T08:46:14.485Z,8.84
2022-12-29T08:48:41.003Z,8.87
2022-12-29T08:51:08.746Z,8.86
2022-12-29T08:53:35.441Z,8.88
2022-12-29T08:56:05.427Z,8.88
2022-12-29T08:58:32.653Z,8.85
2022-12-29T09:00:59.945Z,8.85
2022-12-29T09:03:55.081Z,8.89
2022-12-29T09:06:14.153Z,8.97
2022-12-29T09:08:40.863Z,8.98
2022-12-29T09:11:12.282Z,9.00
2022-12-29T09:13:39.274Z,9.02
2022-12-29T09:16:06.225Z,9.08
2022-12-29T09:18:33.247Z,9.08
2022-12-29T09:21:03.686Z,9.08
2022-12-29T09:23:30.429Z,9.11
2022-12-29T09:25:57.517Z,9.10
2022-12-29T09:28:24.342Z,9.05
2022-12-29T09:30:51.671Z,9.02
2022-12-29T09:33:18.682Z,8.95
2022-12-29T09:35:46.467Z,8.88
2022-12-29T09:38:13.166Z,8.84
2022-12-29T09:40:40.456Z,8.83
2022-12-29T09:43:25.200Z,8.79
2022-12-29T09:46:27.681Z,8.75
2022-12-29T09:49:09.698Z,8.69
2022-12-29T09:51:39.920Z,8.67
2022-12-29T09:54:54.987Z,8.66
2022-12-29T09:57:39.603Z,8.66
2022-12-29T10:00:18.837Z,8.68
2022-12-29T10:02:49.230Z,8.69
2022-12-29T10:05:24.987Z,8.67
2022-12-29T10:08:00.637Z,8.69
2022-12-29T10:10:41.791Z,8.72
2022-12-29T10:13:11.317Z,8.71
2022-12-29T10:16:17.749Z,8.73
2022-12-29T10:19:32.890Z,8.75
2022-12-29T10:22:15.030Z,8.72
2022-12-29T10:24:45.064Z,8.74
2022-12-29T10:27:13.689Z,8.78
2022-12-29T10:29:53.180Z,8.82
2022-12-29T10:33:04.220Z,8.79
2022-12-29T10:35:41.576Z,8.77
2022-12-29T10:38:20.279Z,8.76
2022-12-29T10:41:01.471Z,8.79
2022-12-29T10:43:32.135Z,8.85
2022-12-29T10:46:03.597Z,8.83
2022-12-29T10:48:33.799Z,8.79
2022-12-29T10:51:06.041Z,8.83
2022-12-29T10:53:48.076Z,8.92
2022-12-29T10:56:32.657Z,8.93
2022-12-29T10:59:04.458Z,8.88
2022-12-29T11:01:44.163Z,8.87
2022-12-29T11:04:43.379Z,8.85
2022-12-29T11:07:15.921Z,8.85
2022-12-29T11:09:45.306Z,8.87
2022-12-29T11:12:22.824Z,8.91
2022-12-29T11:15:01.783Z,8.94
2022-12-29T11:17:28.343Z,8.95
2022-12-29T11:19:54.833Z,8.97
2022-12-29T11:22:28.762Z,9.08
2022-12-29T11:25:05.741Z,9.14
2022-12-29T11:27:33.845Z,9.27
2022-12-29T11:30:00.306Z,9.38
2022-12-29T11:32:29.460Z,9.47
2022-12-29T11:34:58.715Z,9.49
2022-12-29T11:37:32.477Z,9.38
2022-12-29T11:40:27.340Z,9.35
2022-12-29T11:43:00.881Z,9.25
2022-12-29T11:45:34.531Z,9.15
2022-12-29T11:48:08.945Z,9.11
2022-12-29T11:50:40.043Z,9.17
2022-12-29T11:53:19.482Z,9.25
2022-12-29T11:55:57.063Z,9.26
2022-12-29T11:58:33.295Z,9.21
2022-12-29T12:01:35.685Z,9.19
2022-12-29T12:04:13.184Z,9.21
2022-12-29T12:06:47.242Z,9.17
2022-12-29T12:09:26.132Z,9.09
2022-12-29T12:11:54.969Z,9.06
2022-12-29T12:14:28.778Z,9.02
2022-12-29T12:17:10.138Z,8.97
2022-12-29T12:19:45.552Z,8.96
2022-12-29T12:22:32.357Z,8.99
2022-12-29T12:25:38.894Z,9.00
2022-12-29T12:28:36.746Z,9.04
2022-12-29T12:31:07.549Z,9.08
2022-12-29T12:33:48.737Z,9.11
2022-12-29T12:36:30.244Z,9.11
2022-12-29T12:39:00.389Z,9.11
2022-12-29T12:41:33.709Z,9.13
2022-12-29T12:44:11.689Z,9.19
2022-12-29T12:46:51.854Z,9.27
2022-12-29T12:49:49.552Z,9.34
2022-12-29T12:52:36.917Z,9.43
2022-12-29T12:55:50.937Z,9.50
2022-12-29T12:58:57.888Z,9.55
2022-12-29T13:01:54.212Z,9.58
2022-12-29T13:04:42.320Z,9.60
2022-12-29T13:07:18.261Z,9.65
2022-12-29T13:10:20.082Z,9.65
2022-12-29T13:13:24.870Z,9.61
2022-12-29T13:16:15.281Z,9.56
2022-12-29T13:18:41.701Z,9.57
2022-12-29T13:21:45.471Z,9.57
2022-12-29T13:24:28.159Z,9.53
2022-12-29T13:27:12.792Z,9.48
2022-12-29T13:29:45.309Z,9.46
2022-12-29T13:32:44.296Z,9.43
2022-12-29T13:35:40.112Z,9.38
2022-12-29T13:38:38.216Z,9.38
2022-12-29T13:41:09.383Z,9.35
2022-12-29T13:43:40.951Z,9.35
2022-12-29T13:46:16.343Z,9.35
2022-12-29T13:49:06.062Z,9.35
2022-12-29T13:51:34.344Z,9.32
2022-12-29T13:54:30.349Z,9.31
2022-12-29T13:57:21.498Z,9.29
2022-12-29T13:59:55.800Z,9.28
2022-12-29T14:02:43.635Z,9.25
2022-12-29T14:05:19.920Z,9.22
2022-12-29T14:07:47.562Z,9.20
2022-12-29T14:10:34.419Z,9.15
2022-12-29T14:13:05.569Z,9.10
2022-12-29T14:15:32.392Z,9.03
2022-12-29T14:18:11.120Z,8.95
2022-12-29T14:20:39.496Z,8.86
2022-12-29T14:23:12.074Z,8.82
2022-12-29T14:26:07.573Z,8.76
2022-12-29T14:28:36.996Z,8.73
2022-12-29T14:31:05.839Z,8.70
2022-12-29T14:33:34.362Z,8.66
2022-12-29T14:36:27.745Z,8.60
2022-12-29T14:38:54.233Z,8.55
2022-12-29T14:41:40.240Z,8.50
2022-12-29T14:44:20.734Z,8.43
2022-12-29T14:46:50.176Z,8.35
2022-12-29T14:49:22.820Z,8.30
2022-12-29T14:51:51.977Z,8.26
2022-12-29T14:54:37.204Z,8.22
2022-12-29T14:57:07.327Z,8.19
2022-12-29T14:59:36.019Z,8.20
2022-12-29T15:02:08.776Z,8.20
2022-12-29T15:04:36.713Z,8.17
2022-12-29T15:07:10.102Z,8.16
2022-12-29T15:09:41.579Z,8.16
2022-12-29T15:12:23.471Z,8.16
2022-12-29T15:14:55.298Z,8.16
2022-12-29T15:17:30.822Z,8.17
2022-12-29T15:19:59.400Z,8.18
2022-12-29T15:22:27.260Z,8.18
2022-12-29T15:24:55.802Z,8.16
2022-12-29T15:27:25.349Z,8.17
2022-12-29T15:30:04.148Z,8.19
2022-12-29T15:32:43.161Z,8.19
2022-12-29T15:35:35.632Z,8.20
2022-12-29T15:38:14.999Z,8.19
2022-12-29T15:40:45.184Z,8.19
2022-12-29T15:43:31.417Z,8.19
2022-12-29T15:45:57.995Z,8.19
2022-12-29T15:48:26.303Z,8.19
2022-12-29T15:50:53.126Z,8.22
2022-12-29T15:53:26.900Z,8.21
2022-12-29T15:55:57.031Z,8.23
2022-12-29T15:58:29.822Z,8.21
2022-12-29T16:00:59.208Z,8.20
2022-12-29T16:03:28.721Z,8.20
2022-12-29T16:05:58.420Z,8.19
2022-12-29T16:08:34.734Z,8.18
2022-12-29T16:11:03.971Z,8.18
2022-12-29T16:13:39.602Z,8.19
2022-12-29T16:16:45.001Z,8.18
2022-12-29T16:19:33.092Z,8.19
2022-12-29T16:22:01.803Z,8.17
2022-12-29T16:24:33.564Z,8.16
2022-12-29T16:27:14.343Z,8.14
2022-12-29T16:29:40.990Z,8.13
2022-12-29T16:32:29.403Z,8.13
2022-12-29T16:35:12.837Z,8.14
2022-12-29T16:37:40.318Z,8.13
2022-12-29T16:40:19.113Z,8.12
2022-12-29T16:42:52.210Z,8.08
2022-12-29T16:45:24.996Z,8.06
2022-12-29T16:48:06.786Z,7.98
2022-12-29T16:50:39.336Z,7.90
2022-12-29T16:53:08.700Z,7.82
2022-12-29T16:55:35.384Z,7.71
2022-12-29T16:58:02.032Z,7.61
2022-12-29T17:00:33.295Z,7.59
2022-12-29T17:03:01.742Z,7.52
2022-12-29T17:05:28.548Z,7.47
2022-12-29T17:07:56.047Z,7.41
2022-12-29T17:10:42.528Z,7.37
2022-12-29T17:13:09.608Z,7.30
2022-12-29T17:15:36.177Z,7.28
2022-12-29T17:18:03.603Z,7.26
2022-12-29T17:20:32.099Z,7.25
2022-12-29T17:23:00.163Z,7.23
2022-12-29T17:25:31.563Z,7.18
2022-12-29T17:28:01.359Z,7.15
2022-12-29T17:30:33.960Z,7.14
2022-12-29T17:33:35.176Z,7.18
2022-12-29T17:36:01.614Z,7.16
2022-12-29T17:38:30.942Z,7.09
2022-12-29T17:40:58.532Z,7.06
2022-12-29T17:43:25.448Z,7.04
2022-12-29T17:45:55.830Z,7.03
2022-12-29T17:48:23.164Z,6.99
2022-12-29T17:50:52.466Z,6.95
2022-12-29T17:53:22.634Z,6.92
2022-12-29T17:55:49.088Z,6.89
2022-12-29T17:58:17.212Z,6.84
2022-12-29T18:00:43.769Z,6.79
2022-12-29T18:03:26.306Z,6.80
2022-12-29T18:05:52.977Z,6.79
2022-12-29T18:08:19.554Z,6.81
2022-12-29T18:10:46.282Z,6.83
2022-12-29T18:13:27.203Z,6.81
2022-12-29T18:15:56.314Z,6.77
2022-12-29T18:18:26.957Z,6.73
2022-12-29T18:20:55.984Z,6.73
2022-12-29T18:23:35.072Z,6.69
2022-12-29T18:26:04.809Z,6.66
2022-12-29T18:28:31.830Z,6.66
2022-12-29T18:31:01.010Z,6.66
2022-12-29T18:33:28.526Z,6.64
2022-12-29T18:35:58.564Z,6.65
2022-12-29T18:38:25.680Z,6.66
2022-12-29T18:40:52.510Z,6.59
2022-12-29T18:43:19.677Z,6.59
2022-12-29T18:45:46.600Z,6.57
2022-12-29T18:48:17.744Z,6.58
2022-12-29T18:50:45.153Z,6.59
2022-12-29T18:53:23.659Z,6.60
2022-12-29T18:55:51.490Z,6.56
2022-12-29T18:58:18.240Z,6.56
2022-12-29T19:00:45.359Z,6.58
2022-12-29T19:03:17.703Z,6.59
2022-12-29T19:05:46.178Z,6.61
2022-12-29T19:08:13.739Z,6.60
2022-12-29T19:10:42.100Z,6.61
2022-12-29T19:13:16.481Z,6.61
2022-12-29T19:15:43.549Z,6.60
2022-12-29T19:18:43.122Z,6.62
2022-12-29T19:21:01.031Z,6.61
2022-12-29T19:23:27.702Z,6.60
2022-12-29T19:25:55.334Z,6.64
2022-12-29T19:28:24.517Z,6.62
2022-12-29T19:30:52.933Z,6.62
2022-12-29T19:33:21.730Z,6.60
2022-12-29T19:35:49.536Z,6.59
2022-12-29T19:38:16.356Z,6.55
2022-12-29T19:40:44.591Z,6.56
2022-12-29T19:43:12.190Z,6.52
2022-12-29T19:45:43.734Z,6.50
2022-12-29T19:48:18.659Z,6.45
2022-12-29T19:50:45.869Z,6.46
2022-12-29T19:53:13.065Z,6.45
2022-12-29T19:55:43.743Z,6.43
2022-12-29T19:58:10.437Z,6.44
2022-12-29T20:00:47.419Z,6.43
2022-12-29T20:03:14.040Z,6.41
2022-12-29T20:05:40.795Z,6.39
2022-12-29T20:08:07.352Z,6.41
2022-12-29T20:10:33.935Z,6.38
2022-12-29T20:13:00.418Z,6.30
2022-12-29T20:15:26.896Z,6.26
2022-12-29T20:20:39.954Z,6.22
2022-12-29T20:23:06.521Z,6.23
2022-12-29T20:25:48.636Z,6.21
2022-12-29T20:28:15.824Z,6.17
2022-12-29T20:30:42.687Z,6.16
2022-12-29T20:33:09.304Z,6.15
2022-12-29T20:35:36.695Z,6.14
2022-12-29T20:38:04.011Z,6.17
2022-12-29T20:40:30.673Z,6.19
2022-12-29T20:42:57.193Z,6.19
2022-12-29T20:45:23.912Z,6.26
2022-12-29T20:47:50.421Z,6.37
2022-12-29T20:50:17.054Z,6.45
2022-12-29T20:52:43.784Z,6.49
2022-12-29T20:55:10.287Z,6.53
2022-12-29T20:58:13.619Z,6.54
2022-12-29T21:00:23.327Z,6.58
2022-12-29T21:02:50.329Z,6.61
2022-12-29T21:05:25.513Z,6.61
2022-12-29T21:07:53.419Z,6.68
2022-12-29T21:10:20.382Z,6.73
2022-12-29T21:12:46.909Z,6.75
2022-12-29T21:15:15.409Z,6.76
2022-12-29T21:17:43.315Z,6.74
2022-12-29T21:20:19.544Z,6.76
2022-12-29T21:22:49.615Z,6.72
2022-12-29T21:25:16.164Z,6.70
2022-12-29T21:27:45.471Z,6.69
2022-12-29T21:30:12.770Z,6.65
2022-12-29T21:32:40.498Z,6.64
2022-12-29T21:35:08.275Z,6.60
2022-12-29T21:37:35.677Z,6.54
2022-12-29T21:40:02.848Z,6.41
2022-12-29T21:42:29.398Z,6.37
2022-12-29T21:45:20.163Z,6.36
2022-12-29T21:48:05.724Z,6.33
2022-12-29T21:50:32.400Z,6.26
2022-12-29T21:52:58.927Z,6.24
2022-12-29T21:55:25.426Z,6.24
2022-12-29T21:58:10.686Z,6.19
2022-12-29T22:00:55.718Z,6.17
2022-12-29T22:03:40.792Z,6.16
2022-12-29T22:06:29.970Z,6.11
2022-12-29T22:09:15.192Z,6.07
2022-12-29T22:12:00.203Z,6.06
2022-12-29T22:14:26.700Z,5.97
2022-12-29T22:16:53.156Z,5.95
2022-12-29T22:19:19.727Z,5.92
2022-12-29T22:21:46.219Z,5.92
2022-12-29T22:24:12.741Z,5.88
2022-12-29T22:26:39.215Z,5.88
2022-12-29T22:29:05.690Z,5.86
2022-12-29T22:31:32.870Z,5.87
2022-12-29T22:34:04.266Z,5.87
2022-12-29T22:36:32.430Z,5.85
2022-12-29T22:38:59.064Z,5.79
2022-12-29T22:41:27.413Z,5.72
2022-12-29T22:43:55.004Z,5.72
2022-12-29T22:46:21.748Z,5.77
2022-12-29T22:48:48.291Z,5.75
2022-12-29T22:51:14.766Z,5.73
2022-12-29T22:53:41.331Z,5.83
2022-12-29T22:56:10.522Z,5.79
2022-12-29T22:58:44.633Z,5.75
2022-12-29T23:01:12.771Z,5.72
2022-12-29T23:03:39.765Z,5.70
2022-12-29T23:06:07.815Z,5.70
2022-12-29T23:08:37.299Z,5.67
2022-12-29T23:11:05.703Z,5.67
2022-12-29T23:13:32.479Z,5.69
2022-12-29T23:15:59.074Z,5.72
2022-12-29T23:18:26.712Z,5.73
2022-12-29T23:20:53.268Z,5.68
2022-12-29T23:23:46.519Z,5.73
2022-12-29T23:26:14.854Z,5.73
2022-12-29T23:28:42.498Z,5.67
2022-12-29T23:31:09.060Z,5.68
2022-12-29T23:33:35.612Z,5.68
2022-12-29T23:36:02.113Z,5.66
2022-12-29T23:38:28.625Z,5.63
2022-12-29T23:40:55.206Z,5.59
2022-12-29T23:43:21.738Z,5.60
2022-12-29T23:45:50.964Z,5.58
2022-12-29T23:48:18.282Z,5.57
2022-12-29T23:50:44.807Z,5.55
2022-12-29T23:53:12.312Z,5.50
2022-12-29T23:55:41.632Z,5.45
2022-12-29T23:58:08.987Z,5.48
